Portada
METAR-TAF:

METAR-TAF

Aeropuertos :

Aeropuerto de Jerez

Jerez de la Frontera, España

latitud: 36-45N, longitud: 006-04W, altitud: 27 m

Observación

El informe se hizo hace 35 minutos, a las 08:30 UTC
Viento calma
Temperatura 8°C
Humedad 87%
Presión 1029 hPa
Visibilidad 10 km o más
sin nubes por debajo de 1500 m y sin presencia de cumulonimbus.

METAR: LEJR 220830Z 00000KT CAVOK 08/06 Q1029

Hora: 10:05 (09:05 UTC)

Pronóstico

El informe se hizo hace 4 horas y 5 minutos, a las 05:00 UTC
Pronóstico válido del 22 a las 06 UTC al 23 a las 06 UTC
Viento 4 kt del este-noreste
Visibilidad 10 km o más
sin nubes por debajo de 1500 m y sin presencia de cumulonimbus.
Evolucionando progresivamente
del 22 a las 13 UTC al 22 a las 15 UTC
Viento 10 kt del sureste
Evolucionando progresivamente
del 22 a las 18 UTC al 22 a las 20 UTC
Viento 4 kt del este-noreste

TAF: LEJR 220500Z 2206/2306 07004KT CAVOK TX22/2215Z TN04/2206Z BECMG 2213/2215 14010KT BECMG 2218/2220 07004KT

Observaciones y pronósticos meteorológicos de más de 4000 aeropuertos (mensajes METAR y TAF).

Los puntos amarillos y rojos representan las estaciones disponibles.

Ponga el ratón en el punto deseado para ver el nombre de la estación.

Haga clic para ver las observaciones y los pronósticos meteorológicos.

Para cambiar el mapa : haga clic en los botones verdes con una cruz de color negro para hacer un zoom, en el botón verde con un guión para alejar o en las flechas verdes para mapas adyacentes.


METAR-TAF: